createdAt,value
2023-01-10T00:00:43.861Z,91.95
2023-01-10T00:03:29.491Z,92.66
2023-01-10T00:05:59.220Z,93.03
2023-01-10T00:08:28.760Z,93.13
2023-01-10T00:10:58.429Z,92.77
2023-01-10T00:13:26.752Z,92.97
2023-01-10T00:15:57.954Z,92.76
2023-01-10T00:18:28.754Z,92.70
2023-01-10T00:21:00.686Z,92.59
2023-01-10T00:23:30.039Z,92.79
2023-01-10T00:25:59.720Z,93.05
2023-01-10T00:28:29.078Z,92.28
2023-01-10T00:31:01.437Z,92.54
2023-01-10T00:33:32.893Z,92.60
2023-01-10T00:36:03.511Z,92.31
2023-01-10T00:38:34.489Z,92.21
2023-01-10T00:41:24.751Z,92.05
2023-01-10T00:43:58.929Z,92.18
2023-01-10T00:46:28.929Z,92.21
2023-01-10T00:49:00.348Z,91.66
2023-01-10T00:51:30.027Z,92.47
2023-01-10T00:53:59.663Z,91.52
2023-01-10T00:56:29.249Z,91.67
2023-01-10T00:58:58.550Z,91.72
2023-01-10T01:01:28.266Z,90.98
2023-01-10T01:03:59.529Z,91.48
2023-01-10T01:06:29.497Z,90.74
2023-01-10T01:08:58.911Z,91.40
2023-01-10T01:11:28.602Z,91.49
2023-01-10T01:13:57.929Z,90.84
2023-01-10T01:16:27.526Z,90.87
2023-01-10T01:18:56.839Z,91.08
2023-01-10T01:21:28.516Z,91.30
2023-01-10T01:23:58.084Z,90.70
2023-01-10T01:26:28.262Z,91.19
2023-01-10T01:28:57.967Z,91.23
2023-01-10T01:31:28.020Z,90.71
2023-01-10T01:33:57.452Z,90.29
2023-01-10T01:36:28.537Z,90.26
2023-01-10T01:38:57.908Z,90.19
2023-01-10T01:41:45.099Z,90.47
2023-01-10T01:44:18.209Z,90.64
2023-01-10T01:46:51.736Z,90.42
2023-01-10T01:49:25.411Z,90.47
2023-01-10T01:52:00.819Z,90.40
2023-01-10T01:54:31.307Z,90.12
2023-01-10T01:57:07.431Z,90.42
2023-01-10T01:59:41.089Z,90.02
2023-01-10T02:02:14.821Z,90.35
2023-01-10T02:04:48.446Z,89.73
2023-01-10T02:07:20.021Z,90.23
2023-01-10T02:09:52.728Z,90.56
2023-01-10T02:12:22.618Z,90.72
2023-01-10T02:14:53.349Z,89.80
2023-01-10T02:17:22.980Z,90.46
2023-01-10T02:19:55.788Z,89.72
2023-01-10T02:23:00.951Z,90.06
2023-01-10T02:26:20.872Z,89.96
2023-01-10T02:29:16.978Z,89.98
2023-01-10T02:32:35.482Z,89.42
2023-01-10T02:35:21.583Z,89.97
2023-01-10T02:38:01.344Z,90.01
2023-01-10T02:40:46.149Z,89.50
2023-01-10T02:43:19.430Z,89.67
2023-01-10T02:45:55.609Z,89.62
2023-01-10T02:48:26.384Z,89.60
2023-01-10T02:51:02.915Z,89.33
2023-01-10T02:53:38.478Z,89.51
2023-01-10T02:56:38.899Z,89.41
2023-01-10T02:59:38.277Z,90.19
2023-01-10T03:02:19.105Z,89.65
2023-01-10T03:04:58.224Z,89.27
2023-01-10T03:07:35.726Z,89.73
2023-01-10T03:10:10.328Z,89.80
2023-01-10T03:12:47.253Z,89.46
2023-01-10T03:15:20.429Z,89.32
2023-01-10T03:17:55.992Z,89.76
2023-01-10T03:20:28.418Z,88.87
2023-01-10T03:22:58.591Z,89.06
2023-01-10T03:25:34.273Z,88.88
2023-01-10T03:28:10.403Z,88.99
2023-01-10T03:30:46.541Z,88.97
2023-01-10T03:33:20.088Z,89.61
2023-01-10T03:36:03.619Z,89.10
2023-01-10T03:38:43.521Z,89.12
2023-01-10T03:41:18.172Z,89.32
2023-01-10T03:44:10.580Z,88.74
2023-01-10T03:46:47.973Z,89.28
2023-01-10T03:49:19.783Z,88.60
2023-01-10T03:51:51.373Z,89.33
2023-01-10T03:54:21.320Z,88.72
2023-01-10T03:56:52.391Z,89.06
2023-01-10T03:59:25.849Z,88.36
2023-01-10T04:01:56.021Z,88.36
2023-01-10T04:04:25.892Z,88.71
2023-01-10T04:06:56.593Z,88.50
2023-01-10T04:09:26.286Z,88.16
2023-01-10T04:11:55.618Z,88.81
2023-01-10T04:14:25.221Z,88.63
2023-01-10T04:16:54.623Z,88.52
2023-01-10T04:19:24.184Z,88.95
2023-01-10T04:21:53.596Z,88.90
2023-01-10T04:24:24.705Z,88.43
2023-01-10T04:26:53.995Z,88.34
2023-01-10T04:29:23.593Z,88.84
2023-01-10T04:31:53.223Z,88.38
2023-01-10T04:34:22.966Z,88.21
2023-01-10T04:36:52.402Z,88.79
2023-01-10T04:39:23.484Z,88.95
2023-01-10T04:41:52.865Z,88.48
2023-01-10T04:44:22.780Z,88.58
2023-01-10T04:46:52.638Z,88.53
2023-01-10T04:49:22.429Z,88.47
2023-01-10T04:51:51.771Z,88.58
2023-01-10T04:54:24.034Z,88.54
2023-01-10T04:56:53.511Z,88.67
2023-01-10T04:59:23.361Z,88.44
2023-01-10T05:01:52.759Z,88.72
2023-01-10T05:04:22.400Z,88.81
2023-01-10T05:06:51.871Z,88.77
2023-01-10T05:09:21.523Z,88.65
2023-01-10T05:14:22.095Z,88.50
2023-01-10T05:16:51.484Z,88.48
2023-01-10T05:19:21.127Z,89.12
2023-01-10T05:21:52.257Z,88.60
2023-01-10T05:24:22.480Z,89.05
2023-01-10T05:26:53.245Z,89.04
2023-01-10T05:29:22.991Z,88.05
2023-01-10T05:31:54.113Z,88.72
2023-01-10T05:34:23.892Z,88.66
2023-01-10T05:36:53.183Z,88.74
2023-01-10T05:39:22.900Z,88.27
2023-01-10T05:41:53.750Z,88.61
2023-01-10T05:44:23.711Z,88.54
2023-01-10T05:46:53.123Z,89.14
2023-01-10T05:49:22.681Z,88.66
2023-01-10T05:51:52.253Z,88.38
2023-01-10T05:54:21.910Z,88.47
2023-01-10T05:56:53.001Z,89.06
2023-01-10T05:59:29.830Z,88.69
2023-01-10T06:01:59.268Z,88.70
2023-01-10T06:04:30.389Z,88.69
2023-01-10T06:07:00.017Z,88.53
2023-01-10T06:09:29.593Z,88.28
2023-01-10T06:12:00.474Z,88.61
2023-01-10T06:14:30.159Z,88.30
2023-01-10T06:16:59.437Z,88.30
2023-01-10T06:19:29.143Z,88.17
2023-01-10T06:21:58.411Z,88.69
2023-01-10T06:24:28.139Z,88.21
2023-01-10T06:26:57.482Z,87.83
2023-01-10T06:29:30.130Z,88.28
2023-01-10T06:32:00.428Z,88.10
2023-01-10T06:34:30.093Z,88.30
2023-01-10T06:36:59.591Z,88.50
2023-01-10T06:39:29.426Z,88.14
2023-01-10T06:41:59.129Z,88.12
2023-01-10T06:44:30.251Z,88.23
2023-01-10T06:46:59.605Z,88.83
2023-01-10T06:49:29.988Z,87.86
2023-01-10T06:51:59.321Z,87.83
2023-01-10T06:54:28.914Z,88.30
2023-01-10T06:56:58.293Z,88.22
2023-01-10T06:59:29.344Z,88.46
2023-01-10T07:01:58.809Z,87.67
2023-01-10T07:04:28.472Z,88.23
2023-01-10T07:06:57.790Z,87.98
2023-01-10T07:09:27.368Z,87.60
2023-01-10T07:11:56.848Z,87.70
2023-01-10T07:14:26.514Z,88.08
2023-01-10T07:16:57.256Z,88.28
2023-01-10T07:19:27.014Z,87.66
2023-01-10T07:21:56.559Z,87.68
2023-01-10T07:24:27.010Z,87.49
2023-01-10T07:26:57.343Z,87.82
2023-01-10T07:29:27.020Z,87.13
2023-01-10T07:31:57.758Z,87.78
2023-01-10T07:34:27.430Z,87.79
2023-01-10T07:36:56.738Z,87.77
2023-01-10T07:39:26.427Z,87.48
2023-01-10T07:41:56.391Z,87.50
2023-01-10T07:44:26.056Z,87.59
2023-01-10T07:46:56.834Z,88.13
2023-01-10T07:49:26.451Z,88.08
2023-01-10T07:51:55.774Z,87.38
2023-01-10T07:54:25.566Z,87.47
2023-01-10T07:56:54.816Z,87.75
2023-01-10T07:59:24.463Z,87.02
2023-01-10T08:01:54.269Z,86.91
2023-01-10T08:04:25.074Z,87.27
2023-01-10T08:06:56.628Z,87.35
2023-01-10T08:09:26.377Z,87.12
2023-01-10T08:11:55.683Z,87.15
2023-01-10T08:14:25.513Z,87.08
2023-01-10T08:16:54.905Z,87.45
2023-01-10T08:19:26.060Z,87.06
2023-01-10T08:21:56.726Z,87.64
2023-01-10T08:24:26.437Z,86.91
2023-01-10T08:26:58.954Z,87.17
2023-01-10T08:29:28.917Z,87.32
2023-01-10T08:31:58.752Z,87.10
2023-01-10T08:34:29.978Z,87.01
2023-01-10T08:36:59.438Z,87.52
2023-01-10T08:39:31.593Z,87.09
2023-01-10T08:42:00.936Z,87.32
2023-01-10T08:44:30.497Z,87.14
2023-01-10T08:46:59.999Z,87.34
2023-01-10T08:49:31.129Z,87.12
2023-01-10T08:52:00.494Z,86.49
2023-01-10T08:54:30.186Z,86.92
2023-01-10T08:56:59.677Z,87.48
2023-01-10T08:59:29.322Z,87.53
2023-01-10T09:01:59.992Z,87.82
2023-01-10T09:04:33.064Z,87.45
2023-01-10T09:07:02.787Z,87.47
2023-01-10T09:09:32.535Z,87.49
2023-01-10T09:12:01.866Z,87.54
2023-01-10T09:14:31.964Z,87.27
2023-01-10T09:17:01.389Z,87.59
2023-01-10T09:19:32.401Z,87.80
2023-01-10T09:22:01.863Z,87.27
2023-01-10T09:24:31.493Z,87.79
2023-01-10T09:27:00.818Z,87.97
2023-01-10T09:29:30.446Z,88.05
2023-01-10T09:31:59.842Z,87.47
2023-01-10T09:34:29.579Z,87.77
2023-01-10T09:37:00.378Z,88.14
2023-01-10T09:39:30.051Z,87.84
2023-01-10T09:42:32.440Z,87.65
2023-01-10T09:45:12.039Z,87.63
2023-01-10T09:47:52.155Z,88.15
2023-01-10T09:50:30.016Z,88.11
2023-01-10T09:53:07.047Z,87.62
2023-01-10T09:55:39.911Z,88.17
2023-01-10T09:58:14.069Z,88.12
2023-01-10T10:00:48.212Z,87.58
2023-01-10T10:03:25.978Z,87.67
2023-01-10T10:06:03.688Z,88.02
2023-01-10T10:08:42.783Z,88.36
2023-01-10T10:11:38.076Z,88.16
2023-01-10T10:14:19.285Z,87.80
2023-01-10T10:17:07.709Z,88.18
2023-01-10T10:19:53.871Z,87.94
2023-01-10T10:22:37.655Z,88.33
2023-01-10T10:25:19.730Z,87.94
2023-01-10T10:28:04.332Z,88.14
2023-01-10T10:30:43.510Z,87.34
2023-01-10T10:33:35.207Z,87.14
2023-01-10T10:36:10.803Z,87.67
2023-01-10T10:38:44.985Z,88.05
2023-01-10T10:41:26.731Z,87.95
2023-01-10T10:44:04.008Z,87.54
2023-01-10T10:46:33.838Z,87.84
2023-01-10T10:49:18.508Z,88.50
2023-01-10T10:51:52.277Z,88.39
2023-01-10T10:54:23.101Z,88.13
2023-01-10T10:56:56.391Z,88.22
2023-01-10T10:59:26.154Z,87.57
2023-01-10T11:01:56.139Z,88.37
2023-01-10T11:04:26.964Z,88.67
2023-01-10T11:06:57.001Z,88.09
2023-01-10T11:09:29.880Z,88.07
2023-01-10T11:12:00.794Z,87.71
2023-01-10T11:14:46.067Z,87.86
2023-01-10T11:17:24.092Z,87.67
2023-01-10T11:20:01.844Z,87.99
2023-01-10T11:22:39.667Z,87.82
2023-01-10T11:25:17.328Z,88.45
2023-01-10T11:27:51.882Z,88.07
2023-01-10T11:30:24.626Z,88.34
2023-01-10T11:32:56.873Z,87.54
2023-01-10T11:35:29.912Z,88.10
2023-01-10T11:38:05.202Z,88.04
2023-01-10T11:40:38.024Z,87.49
2023-01-10T11:43:28.065Z,88.32
2023-01-10T11:46:02.477Z,87.85
2023-01-10T11:51:38.951Z,88.26
2023-01-10T11:54:13.623Z,87.41
2023-01-10T11:56:44.084Z,88.38
2023-01-10T11:59:18.896Z,87.68
2023-01-10T12:01:55.895Z,88.58
2023-01-10T12:04:27.528Z,87.57
2023-01-10T12:07:03.227Z,87.84
2023-01-10T12:09:42.424Z,87.70
2023-01-10T12:12:23.455Z,87.66
2023-01-10T12:14:56.678Z,87.27
2023-01-10T12:17:28.819Z,87.28
2023-01-10T12:20:01.434Z,87.63
2023-01-10T12:22:35.302Z,87.23
2023-01-10T12:25:16.520Z,87.02
2023-01-10T12:27:50.205Z,87.29
2023-01-10T12:30:30.715Z,87.40
2023-01-10T12:33:03.751Z,86.87
2023-01-10T12:35:42.254Z,86.95
2023-01-10T12:38:26.093Z,86.98
2023-01-10T12:40:59.940Z,86.61
2023-01-10T12:43:56.509Z,86.89
2023-01-10T12:47:05.681Z,86.85
2023-01-10T12:49:37.464Z,87.29
2023-01-10T12:52:12.968Z,86.62
2023-01-10T12:54:42.642Z,86.70
2023-01-10T12:57:27.482Z,85.84
2023-01-10T12:59:58.639Z,86.17
2023-01-10T13:02:35.994Z,85.98
2023-01-10T13:05:07.608Z,86.18
2023-01-10T13:07:39.165Z,86.06
2023-01-10T13:10:15.968Z,86.06
2023-01-10T13:12:48.652Z,86.12
2023-01-10T13:15:24.191Z,86.26
2023-01-10T13:17:57.820Z,86.80
2023-01-10T13:20:43.319Z,86.44
2023-01-10T13:23:23.317Z,85.86
2023-01-10T13:25:57.105Z,85.78
2023-01-10T13:28:28.534Z,85.53
2023-01-10T13:31:01.312Z,85.67
2023-01-10T13:33:36.102Z,85.62
2023-01-10T13:36:18.684Z,85.68
2023-01-10T13:38:52.651Z,85.89
2023-01-10T13:41:40.272Z,85.52
2023-01-10T13:44:12.727Z,85.85
2023-01-10T13:46:48.888Z,86.29
2023-01-10T13:49:45.185Z,85.79
2023-01-10T13:52:38.714Z,85.24
2023-01-10T13:55:30.120Z,85.83
2023-01-10T13:58:02.159Z,85.70
2023-01-10T14:01:18.273Z,85.51
2023-01-10T14:03:55.272Z,85.87
2023-01-10T14:06:43.085Z,85.63
2023-01-10T14:09:34.847Z,86.05
2023-01-10T14:12:07.027Z,85.61
2023-01-10T14:14:41.488Z,85.74
2023-01-10T14:17:16.710Z,86.35
2023-01-10T14:19:48.948Z,86.23
2023-01-10T14:22:31.089Z,86.01
2023-01-10T14:25:02.660Z,86.10
2023-01-10T14:27:43.448Z,85.71
2023-01-10T14:30:20.747Z,85.53
2023-01-10T14:32:52.614Z,85.52
2023-01-10T14:35:28.521Z,85.57
2023-01-10T14:38:02.986Z,86.28
2023-01-10T14:40:41.109Z,85.74
2023-01-10T14:43:16.456Z,85.99
2023-01-10T14:45:53.549Z,85.22
2023-01-10T14:48:31.691Z,85.76
2023-01-10T14:51:18.429Z,85.44
2023-01-10T14:53:55.984Z,85.91
2023-01-10T14:56:28.100Z,86.48
2023-01-10T14:58:57.664Z,86.76
2023-01-10T15:01:29.760Z,86.35
2023-01-10T15:04:02.765Z,87.08
2023-01-10T15:06:51.363Z,86.25
2023-01-10T15:09:22.108Z,86.40
2023-01-10T15:11:52.352Z,86.61
2023-01-10T15:14:23.556Z,86.60
2023-01-10T15:16:57.562Z,87.21
2023-01-10T15:19:29.283Z,87.07
2023-01-10T15:21:58.818Z,86.61
2023-01-10T15:24:34.281Z,87.41
2023-01-10T15:27:07.249Z,86.35
2023-01-10T15:29:37.683Z,87.67
2023-01-10T15:32:11.716Z,87.48
2023-01-10T15:34:42.347Z,87.79
2023-01-10T15:37:18.562Z,87.71
2023-01-10T15:39:49.637Z,87.71
2023-01-10T15:42:22.026Z,87.61
2023-01-10T15:44:55.831Z,86.94
2023-01-10T15:47:41.685Z,87.09
2023-01-10T15:50:23.033Z,87.64
2023-01-10T15:52:54.947Z,87.60
2023-01-10T15:55:48.070Z,87.69
2023-01-10T15:58:20.993Z,87.08
2023-01-10T16:00:52.542Z,87.85
2023-01-10T16:03:27.711Z,87.50
2023-01-10T16:05:59.843Z,88.27
2023-01-10T16:08:34.902Z,88.19
2023-01-10T16:11:09.893Z,87.84
2023-01-10T16:13:38.431Z,88.37
2023-01-10T16:16:19.428Z,88.41
2023-01-10T16:18:48.939Z,89.12
2023-01-10T16:21:19.832Z,88.98
2023-01-10T16:23:50.089Z,89.18
2023-01-10T16:26:20.756Z,89.77
2023-01-10T16:28:50.231Z,89.49
2023-01-10T16:31:19.602Z,90.09
2023-01-10T16:33:49.397Z,89.96
2023-01-10T16:36:20.963Z,90.18
2023-01-10T16:38:50.628Z,90.13
2023-01-10T16:41:38.368Z,89.32
2023-01-10T16:44:07.797Z,90.51
2023-01-10T16:46:36.834Z,90.38
2023-01-10T16:49:07.752Z,90.55
2023-01-10T16:51:41.280Z,90.35
2023-01-10T16:54:16.709Z,90.07
2023-01-10T16:56:47.966Z,89.81
2023-01-10T16:59:18.549Z,89.31
2023-01-10T17:01:50.305Z,90.23
2023-01-10T17:04:23.173Z,90.39
2023-01-10T17:06:52.472Z,90.12
2023-01-10T17:09:26.142Z,89.98
2023-01-10T17:12:02.255Z,89.90
2023-01-10T17:14:33.747Z,90.00
2023-01-10T17:17:03.821Z,89.95
2023-01-10T17:19:33.696Z,89.70
2023-01-10T17:22:02.755Z,90.07
2023-01-10T17:24:32.131Z,89.70
2023-01-10T17:27:02.762Z,89.07
2023-01-10T17:29:33.783Z,89.51
2023-01-10T17:32:03.106Z,90.12
2023-01-10T17:34:37.364Z,90.21
2023-01-10T17:37:07.170Z,90.01
2023-01-10T17:39:37.857Z,89.88
2023-01-10T17:42:08.850Z,90.01
2023-01-10T17:44:38.251Z,89.32
2023-01-10T17:47:07.275Z,90.07
2023-01-10T17:49:37.263Z,89.25
2023-01-10T17:52:06.526Z,89.31
2023-01-10T17:54:36.399Z,89.33
2023-01-10T17:57:08.255Z,89.63
2023-01-10T17:59:37.691Z,88.74
2023-01-10T18:02:07.814Z,88.81
2023-01-10T18:04:37.310Z,88.57
2023-01-10T18:07:07.095Z,89.32
2023-01-10T18:09:36.434Z,89.11
2023-01-10T18:12:05.919Z,88.52
2023-01-10T18:14:39.367Z,88.53
2023-01-10T18:17:11.015Z,89.33
2023-01-10T18:19:40.634Z,88.52
2023-01-10T18:22:24.836Z,89.45
2023-01-10T18:24:54.606Z,89.14
2023-01-10T18:27:25.127Z,89.15
2023-01-10T18:29:56.298Z,89.10
2023-01-10T18:32:26.002Z,88.73
2023-01-10T18:34:55.600Z,89.28
2023-01-10T18:37:24.833Z,89.09
2023-01-10T18:39:54.238Z,89.41
2023-01-10T18:42:23.252Z,88.82
2023-01-10T18:44:52.629Z,88.39
2023-01-10T18:47:23.136Z,88.57
2023-01-10T18:49:52.645Z,88.69
2023-01-10T18:52:22.066Z,88.26
2023-01-10T18:54:52.124Z,88.59
2023-01-10T18:57:21.802Z,88.62
2023-01-10T18:59:51.137Z,88.37
2023-01-10T19:02:20.410Z,87.67
2023-01-10T19:04:51.801Z,88.04
2023-01-10T19:07:21.271Z,88.40
2023-01-10T19:09:50.714Z,88.47
2023-01-10T19:12:19.904Z,87.63
2023-01-10T19:14:49.438Z,88.20
2023-01-10T19:17:18.578Z,88.12
2023-01-10T19:19:48.075Z,88.24
2023-01-10T19:22:19.922Z,88.41
2023-01-10T19:24:49.516Z,87.50
2023-01-10T19:27:19.609Z,87.88
2023-01-10T19:29:49.976Z,87.51
2023-01-10T19:32:19.462Z,87.53
2023-01-10T19:34:49.044Z,87.59
2023-01-10T19:37:19.789Z,86.96
2023-01-10T19:39:49.191Z,87.87
2023-01-10T19:42:18.283Z,87.92
2023-01-10T19:44:48.052Z,87.55
2023-01-10T19:47:17.452Z,87.65
2023-01-10T19:49:46.879Z,87.17
2023-01-10T19:52:16.179Z,87.78
2023-01-10T19:54:48.333Z,87.20
2023-01-10T19:57:17.765Z,87.69
2023-01-10T19:59:51.887Z,87.73
2023-01-10T20:02:21.187Z,87.37
2023-01-10T20:04:50.738Z,87.80
2023-01-10T20:07:19.878Z,87.10
2023-01-10T20:09:50.992Z,87.25
2023-01-10T20:12:20.123Z,87.58
2023-01-10T20:14:51.719Z,87.16
2023-01-10T20:17:21.409Z,87.67
2023-01-10T20:19:51.963Z,87.66
2023-01-10T20:22:21.098Z,87.08
2023-01-10T20:24:51.963Z,87.20
2023-01-10T20:27:21.135Z,87.85
2023-01-10T20:29:50.567Z,87.32
2023-01-10T20:32:20.185Z,87.39
2023-01-10T20:34:49.784Z,87.42
2023-01-10T20:37:19.367Z,87.39
2023-01-10T20:39:50.283Z,87.72
2023-01-10T20:42:19.383Z,87.47
2023-01-10T20:44:48.891Z,87.20
2023-01-10T20:47:18.766Z,87.75
2023-01-10T20:49:48.703Z,87.70
2023-01-10T20:52:18.077Z,87.31
2023-01-10T20:54:48.837Z,87.76
2023-01-10T20:57:19.356Z,87.13
2023-01-10T20:59:48.759Z,87.13
2023-01-10T21:02:17.822Z,87.21
2023-01-10T21:04:49.699Z,86.64
2023-01-10T21:07:19.587Z,86.89
2023-01-10T21:09:49.082Z,86.87
2023-01-10T21:12:23.167Z,86.63
2023-01-10T21:14:53.773Z,86.78
2023-01-10T21:17:23.075Z,87.23
2023-01-10T21:19:52.510Z,87.30
2023-01-10T21:22:21.564Z,86.35
2023-01-10T21:24:52.383Z,86.57
2023-01-10T21:27:22.866Z,86.42
2023-01-10T21:29:52.685Z,86.56
2023-01-10T21:32:21.709Z,86.55
2023-01-10T21:34:51.106Z,85.92
2023-01-10T21:37:20.471Z,85.99
2023-01-10T21:39:49.973Z,87.05
2023-01-10T21:42:36.000Z,86.55
2023-01-10T21:45:08.269Z,87.35
2023-01-10T21:47:38.568Z,87.28
2023-01-10T21:50:10.950Z,86.80
2023-01-10T21:52:40.591Z,86.29
2023-01-10T21:55:11.409Z,86.98
2023-01-10T21:57:40.517Z,86.44
2023-01-10T22:00:12.785Z,87.06
2023-01-10T22:02:42.374Z,86.55
2023-01-10T22:05:12.387Z,86.43
2023-01-10T22:07:41.668Z,86.95
2023-01-10T22:10:12.181Z,87.64
2023-01-10T22:12:41.069Z,87.06
2023-01-10T22:15:13.325Z,87.01
2023-01-10T22:17:42.516Z,87.13
2023-01-10T22:20:12.813Z,87.53
2023-01-10T22:22:41.860Z,86.87
2023-01-10T22:25:11.405Z,87.08
2023-01-10T22:27:41.231Z,86.92
2023-01-10T22:30:14.103Z,86.99
2023-01-10T22:32:43.291Z,86.72
2023-01-10T22:35:13.799Z,86.85
2023-01-10T22:37:42.684Z,86.92
2023-01-10T22:40:12.967Z,87.49
2023-01-10T22:42:42.043Z,87.69
2023-01-10T22:45:13.587Z,87.32
2023-01-10T22:47:42.612Z,87.21
2023-01-10T22:50:12.632Z,86.79
2023-01-10T22:52:41.796Z,86.85
2023-01-10T22:55:11.272Z,87.04
2023-01-10T22:57:47.181Z,87.17
2023-01-10T23:00:19.137Z,87.08
2023-01-10T23:02:48.313Z,86.74
2023-01-10T23:05:17.898Z,86.63
2023-01-10T23:07:46.924Z,86.77
2023-01-10T23:10:29.083Z,86.73
2023-01-10T23:13:02.028Z,86.90
2023-01-10T23:15:33.176Z,86.63
2023-01-10T23:18:02.327Z,86.64
2023-01-10T23:20:31.787Z,87.00
2023-01-10T23:23:00.964Z,86.87
2023-01-10T23:25:31.402Z,86.88
2023-01-10T23:28:00.573Z,87.35
2023-01-10T23:30:31.311Z,87.48
2023-01-10T23:33:00.379Z,87.42
2023-01-10T23:35:30.414Z,86.84
2023-01-10T23:37:59.539Z,87.26
2023-01-10T23:40:28.866Z,87.07
2023-01-10T23:42:58.064Z,87.08
2023-01-10T23:45:27.384Z,86.85
2023-01-10T23:47:57.872Z,86.60
2023-01-10T23:50:27.264Z,86.63
2023-01-10T23:52:56.263Z,87.32
2023-01-10T23:55:25.831Z,86.11
2023-01-10T23:57:54.844Z,87.17
